createdAt,value
2023-01-10T00:03:19.862Z,1.48
2023-01-10T00:07:21.308Z,2.35
2023-01-10T00:11:42.898Z,2.40
2023-01-10T00:15:45.050Z,2.00
2023-01-10T00:19:46.764Z,3.85
2023-01-10T00:23:49.133Z,3.28
2023-01-10T00:28:12.191Z,2.58
2023-01-10T00:32:13.789Z,2.45
2023-01-10T00:36:15.426Z,3.17
2023-01-10T00:40:17.170Z,2.97
2023-01-10T00:44:18.639Z,4.10
2023-01-10T00:48:20.245Z,4.47
2023-01-10T00:52:21.834Z,3.85
2023-01-10T00:56:23.293Z,2.80
2023-01-10T01:00:24.782Z,4.45
2023-01-10T01:04:26.276Z,3.13
2023-01-10T01:08:27.781Z,4.40
2023-01-10T01:12:29.266Z,4.45
2023-01-10T01:16:30.785Z,4.70
2023-01-10T01:20:32.859Z,5.15
2023-01-10T01:24:35.196Z,4.32
2023-01-10T01:28:36.803Z,5.75
2023-01-10T01:32:38.626Z,3.38
2023-01-10T01:36:40.137Z,3.55
2023-01-10T01:40:41.832Z,1.92
2023-01-10T01:44:43.439Z,2.33
2023-01-10T01:48:46.590Z,3.47
2023-01-10T01:52:50.633Z,2.70
2023-01-10T01:56:57.253Z,2.88
2023-01-10T02:00:59.212Z,2.60
2023-01-10T02:05:05.130Z,2.45
2023-01-10T02:09:22.016Z,2.17
2023-01-10T02:13:25.462Z,3.78
2023-01-10T02:17:26.940Z,3.63
2023-01-10T02:21:45.375Z,4.60
2023-01-10T02:26:28.465Z,3.33
2023-01-10T02:30:54.872Z,3.50
2023-01-10T02:35:40.574Z,3.80
2023-01-10T02:40:09.975Z,3.80
2023-01-10T02:44:20.167Z,4.43
2023-01-10T02:48:21.952Z,2.28
2023-01-10T02:52:28.165Z,3.97
2023-01-10T02:56:38.870Z,4.03
2023-01-10T03:00:57.621Z,4.85
2023-01-10T03:05:29.097Z,4.20
2023-01-10T03:09:52.587Z,3.33
2023-01-10T03:14:00.827Z,3.50
2023-01-10T03:18:07.147Z,3.13
2023-01-10T03:22:11.126Z,3.72
2023-01-10T03:26:14.260Z,2.90
2023-01-10T03:30:30.365Z,3.45
2023-01-10T03:34:32.462Z,4.45
2023-01-10T03:38:57.008Z,5.30
2023-01-10T03:43:38.778Z,3.17
2023-01-10T03:47:47.662Z,2.95
2023-01-10T03:51:49.828Z,2.97
2023-01-10T03:55:51.292Z,3.03
2023-01-10T03:59:56.683Z,2.10
2023-01-10T04:03:58.158Z,2.50
2023-01-10T04:07:59.820Z,2.63
2023-01-10T04:12:01.460Z,2.28
2023-01-10T04:16:02.934Z,3.72
2023-01-10T04:20:06.807Z,2.00
2023-01-10T04:34:28.932Z,1.85
2023-01-10T04:38:32.053Z,2.83
2023-01-10T04:42:34.110Z,2.65
2023-01-10T04:46:51.325Z,1.70
2023-01-10T04:51:00.531Z,2.28
2023-01-10T04:55:02.079Z,2.00
2023-01-10T04:59:06.409Z,3.03
2023-01-10T05:03:08.764Z,2.05
2023-01-10T05:07:10.397Z,2.47
2023-01-10T05:11:12.506Z,3.17
2023-01-10T05:15:14.393Z,1.58
2023-01-10T05:19:15.903Z,2.42
2023-01-10T05:23:18.224Z,2.30
2023-01-10T05:27:19.697Z,2.70
2023-01-10T05:31:21.281Z,2.10
2023-01-10T05:35:22.851Z,1.88
2023-01-10T05:39:24.492Z,2.10
2023-01-10T05:43:27.133Z,2.05
2023-01-10T05:47:28.621Z,1.88
2023-01-10T05:51:30.286Z,1.67
2023-01-10T05:55:32.137Z,2.40
2023-01-10T05:59:33.683Z,2.15
2023-01-10T06:03:35.328Z,1.23
2023-01-10T06:07:37.093Z,2.13
2023-01-10T06:11:38.925Z,1.17
2023-01-10T06:15:40.464Z,1.30
2023-01-10T06:19:41.937Z,2.15
2023-01-10T06:23:43.462Z,1.70
2023-01-10T06:27:44.994Z,1.77
2023-01-10T06:31:46.433Z,1.85
2023-01-10T06:35:48.209Z,1.05
2023-01-10T06:39:51.173Z,1.17
2023-01-10T06:43:52.708Z,1.63
2023-01-10T06:47:54.180Z,1.25
2023-01-10T06:51:55.683Z,2.45
2023-01-10T06:55:59.914Z,1.77
2023-01-10T07:00:06.210Z,1.50
2023-01-10T07:04:07.709Z,1.13
2023-01-10T07:08:09.230Z,1.35
2023-01-10T07:12:10.633Z,1.48
2023-01-10T07:16:14.872Z,1.20
2023-01-10T07:20:16.797Z,1.42
2023-01-10T07:24:18.475Z,1.13
2023-01-10T07:28:19.976Z,0.88
2023-01-10T07:32:21.498Z,1.20
2023-01-10T07:36:22.919Z,1.50
2023-01-10T07:40:24.466Z,1.38
2023-01-10T07:44:25.901Z,1.65
2023-01-10T07:48:27.725Z,1.25
2023-01-10T07:52:29.219Z,1.42
2023-01-10T07:56:30.923Z,1.83
2023-01-10T08:00:32.355Z,1.65
2023-01-10T08:04:33.768Z,1.70
2023-01-10T08:08:35.257Z,1.10
2023-01-10T08:12:36.788Z,1.83
2023-01-10T08:16:38.206Z,1.13
2023-01-10T08:20:40.703Z,1.38
2023-01-10T08:24:42.240Z,1.65
2023-01-10T08:28:43.692Z,0.82
2023-01-10T08:32:45.739Z,1.10
2023-01-10T08:36:51.956Z,1.50
2023-01-10T08:40:57.070Z,1.48
2023-01-10T08:45:00.556Z,1.35
2023-01-10T08:49:02.069Z,1.02
2023-01-10T08:53:03.699Z,0.88
2023-01-10T08:57:05.140Z,1.25
2023-01-10T09:01:08.285Z,1.13
2023-01-10T09:05:22.179Z,1.08
2023-01-10T09:09:27.606Z,1.48
2023-01-10T09:13:29.596Z,0.63
2023-01-10T09:17:31.021Z,0.90
2023-01-10T09:21:32.524Z,1.08
2023-01-10T09:25:34.636Z,1.00
2023-01-10T09:29:36.068Z,0.47
2023-01-10T09:33:46.814Z,0.45
2023-01-10T09:37:48.571Z,0.60
2023-01-10T09:41:57.192Z,1.02
2023-01-10T09:46:09.207Z,0.77
2023-01-10T09:50:23.626Z,0.73
2023-01-10T09:54:44.368Z,1.10
2023-01-10T09:58:46.619Z,1.48
2023-01-10T10:02:52.746Z,1.35
2023-01-10T10:06:54.318Z,0.80
2023-01-10T10:11:26.482Z,1.55
2023-01-10T10:15:53.862Z,1.23
2023-01-10T10:20:27.412Z,1.52
2023-01-10T10:24:50.048Z,1.20
2023-01-10T10:29:14.633Z,1.13
2023-01-10T10:33:25.024Z,1.20
2023-01-10T10:37:41.542Z,1.50
2023-01-10T10:41:48.095Z,1.08
2023-01-10T10:45:58.814Z,1.58
2023-01-10T10:50:15.248Z,1.63
2023-01-10T10:54:17.056Z,1.67
2023-01-10T10:58:18.732Z,1.23
2023-01-10T11:02:33.247Z,1.52
2023-01-10T11:06:38.404Z,2.75
2023-01-10T11:10:42.371Z,1.98
2023-01-10T11:14:46.744Z,2.13
2023-01-10T11:19:10.817Z,1.45
2023-01-10T11:23:12.327Z,0.93
2023-01-10T11:27:21.237Z,1.17
2023-01-10T11:31:29.719Z,1.48
2023-01-10T11:35:37.011Z,1.10
2023-01-10T11:39:38.460Z,1.05
2023-01-10T11:43:41.168Z,1.10
2023-01-10T11:47:54.621Z,0.50
2023-01-10T11:52:15.945Z,1.60
2023-01-10T11:56:30.513Z,1.58
2023-01-10T12:00:36.714Z,1.58
2023-01-10T12:04:45.038Z,2.03
2023-01-10T12:08:46.489Z,1.80
2023-01-10T12:12:58.196Z,1.77
2023-01-10T12:17:01.175Z,1.50
2023-01-10T12:21:02.889Z,2.17
2023-01-10T12:25:17.019Z,2.28
2023-01-10T12:29:24.736Z,2.35
2023-01-10T12:33:30.111Z,2.55
2023-01-10T12:37:59.942Z,1.25
2023-01-10T12:42:25.760Z,1.90
2023-01-10T12:47:05.173Z,1.83
2023-01-10T12:51:06.407Z,1.60
2023-01-10T12:55:13.302Z,1.65
2023-01-10T12:59:36.461Z,1.50
2023-01-10T13:03:39.385Z,2.08
2023-01-10T13:07:41.097Z,1.30
2023-01-10T13:11:50.738Z,1.40
2023-01-10T13:16:29.620Z,1.30
2023-01-10T13:20:40.161Z,1.42
2023-01-10T13:25:03.478Z,1.65
2023-01-10T13:29:12.006Z,1.23
2023-01-10T13:33:23.313Z,1.42
2023-01-10T13:37:35.501Z,1.38
2023-01-10T13:42:17.844Z,0.60
2023-01-10T13:46:19.340Z,1.00
2023-01-10T13:50:23.720Z,1.20
2023-01-10T13:54:27.634Z,0.93
2023-01-10T13:59:01.144Z,1.25
2023-01-10T14:03:02.740Z,1.50
2023-01-10T14:07:15.292Z,1.15
2023-01-10T14:11:17.064Z,0.95
2023-01-10T14:15:36.869Z,0.95
2023-01-10T14:19:39.746Z,0.80
2023-01-10T14:23:48.559Z,0.77
2023-01-10T14:27:52.394Z,0.50
2023-01-10T14:31:55.437Z,1.13
2023-01-10T14:36:01.452Z,1.40
2023-01-10T14:40:31.451Z,1.30
2023-01-10T14:44:46.811Z,1.25
2023-01-10T14:48:51.852Z,1.08
2023-01-10T14:52:53.739Z,1.42
2023-01-10T14:56:57.362Z,0.93
2023-01-10T15:00:58.894Z,1.40
2023-01-10T15:05:15.476Z,1.27
2023-01-10T15:09:17.055Z,1.05
2023-01-10T15:13:20.940Z,0.70
2023-01-10T15:17:22.614Z,1.58
2023-01-10T15:21:26.203Z,1.45
2023-01-10T15:25:38.841Z,1.60
2023-01-10T15:29:46.884Z,1.67
2023-01-10T15:33:56.422Z,1.33
2023-01-10T15:38:08.051Z,1.17
2023-01-10T15:42:12.722Z,1.40
2023-01-10T15:46:20.316Z,1.83
2023-01-10T15:50:31.866Z,1.65
2023-01-10T15:54:39.600Z,1.85
2023-01-10T15:58:42.851Z,1.75
2023-01-10T16:02:45.136Z,1.50
2023-01-10T16:06:51.201Z,1.52
2023-01-10T16:11:01.257Z,1.50
2023-01-10T16:15:14.944Z,1.50
2023-01-10T16:19:16.453Z,1.30
2023-01-10T16:23:21.281Z,1.35
2023-01-10T16:27:22.838Z,1.35
2023-01-10T16:31:24.413Z,2.08
2023-01-10T16:35:26.496Z,0.95
2023-01-10T16:39:28.241Z,1.98
2023-01-10T16:43:29.709Z,1.50
2023-01-10T16:47:31.221Z,1.52
2023-01-10T16:51:39.776Z,1.48
2023-01-10T16:55:53.583Z,2.42
2023-01-10T16:59:55.065Z,1.67
2023-01-10T17:03:57.321Z,1.92
2023-01-10T17:07:59.025Z,2.03
2023-01-10T17:12:05.535Z,1.88
2023-01-10T17:16:07.471Z,1.40
2023-01-10T17:20:09.867Z,2.22
2023-01-10T17:24:11.804Z,1.60
2023-01-10T17:28:13.316Z,1.50
2023-01-10T17:32:14.834Z,1.13
2023-01-10T17:36:19.130Z,1.13
2023-01-10T17:40:21.047Z,1.20
2023-01-10T17:44:22.543Z,1.17
2023-01-10T17:48:24.807Z,1.33
2023-01-10T17:52:26.249Z,2.15
2023-01-10T17:56:27.691Z,1.88
2023-01-10T18:00:29.808Z,1.92
2023-01-10T18:04:31.348Z,1.40
2023-01-10T18:08:32.786Z,1.60
2023-01-10T18:12:35.322Z,1.48
2023-01-10T18:16:36.828Z,1.65
2023-01-10T18:20:44.999Z,1.30
2023-01-10T18:24:46.970Z,1.73
2023-01-10T18:28:48.606Z,1.35
2023-01-10T18:32:52.207Z,1.08
2023-01-10T18:36:53.808Z,2.22
2023-01-10T18:40:55.207Z,1.83
2023-01-10T18:44:56.780Z,2.38
2023-01-10T18:48:58.185Z,1.75
2023-01-10T18:52:59.696Z,2.08
2023-01-10T18:57:01.117Z,1.88
2023-01-10T19:01:14.686Z,1.63
2023-01-10T19:05:16.366Z,1.92
2023-01-10T19:09:19.294Z,1.70
2023-01-10T19:13:20.724Z,1.52
2023-01-10T19:17:22.994Z,1.80
2023-01-10T19:21:27.019Z,2.40
2023-01-10T19:25:28.474Z,1.65
2023-01-10T19:29:33.348Z,2.05
2023-01-10T19:33:34.994Z,2.03
2023-01-10T19:37:36.451Z,2.42
2023-01-10T19:41:39.290Z,2.88
2023-01-10T19:45:41.653Z,1.92
2023-01-10T19:49:43.072Z,1.73
2023-01-10T19:53:46.358Z,1.23
2023-01-10T19:57:47.880Z,1.80
2023-01-10T20:01:49.469Z,2.15
2023-01-10T20:05:51.010Z,2.67
2023-01-10T20:09:56.925Z,1.75
2023-01-10T20:13:58.346Z,1.95
2023-01-10T20:17:59.771Z,2.55
2023-01-10T20:22:01.360Z,2.45
2023-01-10T20:26:09.540Z,1.88
2023-01-10T20:30:13.937Z,1.83
2023-01-10T20:34:15.582Z,2.20
2023-01-10T20:38:16.996Z,2.28
2023-01-10T20:42:18.498Z,1.25
2023-01-10T20:46:26.638Z,1.77
2023-01-10T20:50:28.230Z,1.75
2023-01-10T20:54:29.661Z,1.65
2023-01-10T20:58:32.807Z,1.55
2023-01-10T21:02:34.352Z,1.88
2023-01-10T21:06:36.823Z,1.52
2023-01-10T21:10:43.350Z,1.48
2023-01-10T21:14:44.832Z,1.80
2023-01-10T21:18:46.764Z,1.73
2023-01-10T21:22:48.306Z,1.45
2023-01-10T21:26:50.071Z,2.33
2023-01-10T21:30:52.969Z,1.40
2023-01-10T21:34:54.428Z,0.75
2023-01-10T21:38:56.157Z,0.98
2023-01-10T21:42:59.059Z,1.52
2023-01-10T21:47:00.733Z,0.60
2023-01-10T21:51:02.245Z,0.82
2023-01-10T21:55:04.506Z,0.80
2023-01-10T21:59:06.019Z,1.83
2023-01-10T22:03:07.486Z,0.90
2023-01-10T22:07:08.910Z,1.02
2023-01-10T22:11:11.113Z,0.70
2023-01-10T22:15:12.839Z,1.70
2023-01-10T22:19:14.303Z,0.70
2023-01-10T22:23:15.772Z,1.00
2023-01-10T22:27:17.639Z,0.82
2023-01-10T22:31:19.205Z,0.77
2023-01-10T22:35:21.037Z,0.70
2023-01-10T22:39:22.545Z,0.40
2023-01-10T22:43:23.966Z,0.70
2023-01-10T22:47:25.454Z,0.47
2023-01-10T22:51:28.428Z,1.05
2023-01-10T22:55:29.905Z,0.35
2023-01-10T22:59:33.235Z,1.10
2023-01-10T23:03:34.972Z,0.57
2023-01-10T23:07:36.724Z,0.60
2023-01-10T23:11:38.169Z,0.70
2023-01-10T23:15:39.749Z,1.42
2023-01-10T23:19:41.193Z,0.95
2023-01-10T23:23:42.894Z,1.27
2023-01-10T23:27:44.382Z,0.93
2023-01-10T23:31:49.599Z,0.52
2023-01-10T23:35:51.189Z,1.00
2023-01-10T23:39:52.612Z,0.35
2023-01-10T23:43:54.055Z,0.90
2023-01-10T23:47:55.478Z,0.75
2023-01-10T23:51:56.987Z,0.85
2023-01-10T23:55:58.639Z,0.50
